Time;durP1;ratioP1;P1;durP2;ratioP2;P2;SDS_P1;SDS_P2;PMS_P1;PMS_P2;Temp;Humidity;BMP_temperature;BMP_pressure;BME280_temperature;BME280_humidity;BME280_pressure;Samples;Min_cycle;Max_cycle;Signal;HPM_P1;HPM_P2
2022/12/28 00:00:16;;;;;;;;;;;;;;;5.55;100.00;101584.06;4933403;29;19915;-66
2022/12/28 00:02:41;;;;;;;;;;;;;;;5.70;100.00;101583.09;4932253;29;19982;-66
2022/12/28 00:05:06;;;;;;;;;;;;;;;5.69;100.00;101570.50;4934170;29;20362;-67
2022/12/28 00:07:31;;;;;;;;;;;;;;;5.68;100.00;101563.38;4932047;29;19911;-65
2022/12/28 00:09:56;;;;;;;;;;;;;;;5.67;100.00;101560.81;4933332;29;19926;-65
2022/12/28 00:12:22;;;;;;;;;;;;;;;5.64;100.00;101556.59;4933921;29;19915;-66
2022/12/28 00:14:47;;;;;;;;;;;;;;;5.60;100.00;101552.50;4932323;29;19910;-67
2022/12/28 00:17:12;;;;;;;;;;;;;;;5.63;100.00;101546.72;4932665;29;19919;-66
2022/12/28 00:19:37;;;;;;;;;;;;;;;5.63;100.00;101537.69;4932779;29;19915;-67
2022/12/28 00:22:03;;;;;;;;;;;;;;;5.71;100.00;101521.25;4932327;29;19926;-67
2022/12/28 00:24:28;;;;;;;;;;;;;;;5.66;100.00;101519.09;4933352;29;20001;-65
2022/12/28 00:26:55;;;;;;;;;;;;;;;5.73;100.00;101502.88;4932422;29;20359;-66
2022/12/28 00:29:21;;;;;;;;;;;;;;;5.76;100.00;101507.94;4932543;29;20271;-66
2022/12/28 00:31:46;;;;;;;;;;;;;;;5.79;100.00;101499.41;4932342;29;19926;-65
2022/12/28 00:34:11;;;;;;;;;;;;;;;5.76;100.00;101501.66;4932343;29;19922;-65
2022/12/28 00:36:36;;;;;;;;;;;;;;;5.70;100.00;101495.91;4932017;29;19929;-66
2022/12/28 00:39:01;;;;;;;;;;;;;;;5.70;100.00;101492.31;4932356;29;20348;-67
2022/12/28 00:41:27;;;;;;;;;;;;;;;5.81;100.00;101497.34;4933115;29;19919;-66
2022/12/28 00:43:52;;;;;;;;;;;;;;;5.72;100.00;101485.63;4933045;29;19919;-65
2022/12/28 00:46:17;;;;;;;;;;;;;;;5.67;100.00;101477.16;4932878;29;19918;-65
2022/12/28 00:48:42;;;;;;;;;;;;;;;5.93;100.00;101463.19;4930161;29;20282;-65
2022/12/28 00:51:13;;;;;;;;;;;;;;;5.77;100.00;101465.16;4932346;29;19925;-66
2022/12/28 00:53:38;;;;;;;;;;;;;;;5.75;100.00;101470.81;4930788;29;19914;-66
2022/12/28 00:56:07;;;;;;;;;;;;;;;5.81;100.00;101450.16;4932352;29;19926;-66
2022/12/28 00:58:32;;;;;;;;;;;;;;;5.73;100.00;101451.09;4932714;29;20529;-65
2022/12/28 01:00:58;;;;;;;;;;;;;;;5.83;100.00;101454.41;4931083;29;20014;-66
2022/12/28 01:03:23;;;;;;;;;;;;;;;5.79;100.00;101446.78;4930027;29;19919;-67
2022/12/28 01:05:48;;;;;;;;;;;;;;;5.88;100.00;101449.25;4928097;29;20358;-67
2022/12/28 01:08:13;;;;;;;;;;;;;;;5.99;100.00;101445.25;4931468;29;19969;-66
2022/12/28 01:10:39;;;;;;;;;;;;;;;5.95;100.00;101439.31;4931841;29;20281;-65
2022/12/28 01:13:04;;;;;;;;;;;;;;;5.93;100.00;101435.06;4930481;29;19918;-65
2022/12/28 01:15:30;;;;;;;;;;;;;;;6.10;100.00;101433.03;4930850;29;19925;-65
2022/12/28 01:17:55;;;;;;;;;;;;;;;5.94;100.00;101431.31;4930659;29;19926;-68
2022/12/28 01:20:20;;;;;;;;;;;;;;;6.00;100.00;101427.00;4932958;29;19919;-66
2022/12/28 01:22:45;;;;;;;;;;;;;;;6.03;100.00;101429.34;4930918;29;19918;-65
2022/12/28 01:25:12;;;;;;;;;;;;;;;6.07;100.00;101417.88;4932002;29;19919;-65
2022/12/28 01:27:37;;;;;;;;;;;;;;;6.09;100.00;101420.44;4931820;29;19923;-69
2022/12/28 01:30:02;;;;;;;;;;;;;;;6.19;100.00;101421.00;4931549;29;19925;-66
2022/12/28 01:32:27;;;;;;;;;;;;;;;6.20;100.00;101412.63;4931662;29;19934;-65
2022/12/28 01:34:52;;;;;;;;;;;;;;;6.16;100.00;101408.56;4931960;29;20362;-66
2022/12/28 01:37:18;;;;;;;;;;;;;;;6.20;100.00;101395.41;4930904;29;19918;-66
2022/12/28 01:39:43;;;;;;;;;;;;;;;6.19;100.00;101394.56;4931120;29;20312;-66
2022/12/28 01:42:15;;;;;;;;;;;;;;;6.22;100.00;101405.09;4931505;29;19919;-66
2022/12/28 01:44:42;;;;;;;;;;;;;;;6.27;100.00;101384.59;4931846;29;20413;-66
2022/12/28 01:47:09;;;;;;;;;;;;;;;6.27;100.00;101384.59;4930994;29;19922;-67
2022/12/28 01:49:41;;;;;;;;;;;;;;;6.35;100.00;101365.41;4931512;29;20351;-65
2022/12/28 01:52:09;;;;;;;;;;;;;;;6.24;100.00;101369.47;4920766;29;19949;-66
2022/12/28 01:54:40;;;;;;;;;;;;;;;6.39;100.00;101372.16;4931994;29;19915;-66
2022/12/28 01:57:06;;;;;;;;;;;;;;;6.37;100.00;101371.50;4916083;29;19918;-65
2022/12/28 01:59:32;;;;;;;;;;;;;;;6.34;100.00;101359.09;4930922;29;19926;-65
2022/12/28 02:01:58;;;;;;;;;;;;;;;6.53;100.00;101352.16;4928501;29;20295;-66
2022/12/28 02:04:23;;;;;;;;;;;;;;;6.48;100.00;101343.72;4931188;29;19930;-65
2022/12/28 02:06:49;;;;;;;;;;;;;;;6.47;100.00;101337.41;4968014;23;19930;-64
2022/12/28 02:09:41;;;;;;;;;;;;;;;6.53;100.00;101333.06;4909837;29;20025;-64
2022/12/28 02:12:08;;;;;;;;;;;;;;;6.55;100.00;101325.56;4896071;29;20302;-63
2022/12/28 02:14:34;;;;;;;;;;;;;;;6.53;100.00;101318.59;4911655;29;19919;-64
2022/12/28 02:16:59;;;;;;;;;;;;;;;6.48;100.00;101310.97;4908711;29;19966;-63
2022/12/28 02:19:32;;;;;;;;;;;;;;;6.65;100.00;101300.69;4911362;29;19915;-64
2022/12/28 02:22:12;;;;;;;;;;;;;;;6.61;100.00;101308.41;4910243;29;20571;-64
2022/12/28 02:24:57;;;;;;;;;;;;;;;6.47;100.00;101298.38;4910610;29;19926;-64
2022/12/28 02:27:47;;;;;;;;;;;;;;;6.53;100.00;101292.13;4909998;29;19919;-64
2022/12/28 02:30:13;;;;;;;;;;;;;;;6.47;100.00;101292.91;4910123;29;19919;-64
2022/12/28 02:32:59;;;;;;;;;;;;;;;6.52;100.00;101284.16;4910478;29;19946;-63
2022/12/28 02:35:39;;;;;;;;;;;;;;;6.67;100.00;101272.13;4911330;29;20518;-64
2022/12/28 02:38:15;;;;;;;;;;;;;;;6.56;100.00;101280.00;4910278;29;19915;-64
2022/12/28 02:40:43;;;;;;;;;;;;;;;6.61;100.00;101272.91;4909922;29;19922;-63
2022/12/28 02:43:08;;;;;;;;;;;;;;;6.52;100.00;101274.09;4911232;29;19922;-65
2022/12/28 02:51:21;;;;;;;;;;;;;;;6.58;100.00;101261.53;4910831;29;20380;-65
2022/12/28 02:54:05;;;;;;;;;;;;;;;6.45;100.00;101262.25;4908228;29;19939;-68
2022/12/28 02:56:33;;;;;;;;;;;;;;;6.62;100.00;101263.69;4909701;29;20002;-66
2022/12/28 02:59:07;;;;;;;;;;;;;;;6.40;100.00;101265.56;4910221;29;19943;-66
2022/12/28 03:01:51;;;;;;;;;;;;;;;6.55;100.00;101254.59;4910481;29;19978;-66
2022/12/28 03:04:23;;;;;;;;;;;;;;;6.44;100.00;101244.22;4909731;29;19943;-65
2022/12/28 03:09:50;;;;;;;;;;;;;;;6.35;100.00;101246.22;4910395;29;20450;-65
2022/12/28 03:12:20;;;;;;;;;;;;;;;6.37;100.00;101233.19;4912096;29;20394;-66
2022/12/28 03:14:55;;;;;;;;;;;;;;;6.27;100.00;101240.84;4914721;29;20018;-66
2022/12/28 03:31:13;;;;;;;;;;;;;;;6.44;100.00;101208.75;4913764;29;19926;-66
2022/12/28 03:33:41;;;;;;;;;;;;;;;6.50;100.00;101210.69;4913951;29;19942;-66
2022/12/28 03:36:07;;;;;;;;;;;;;;;6.46;100.00;101220.28;4915051;29;19915;-67
2022/12/28 03:38:38;;;;;;;;;;;;;;;6.49;100.00;101219.91;4913567;29;19966;-65
2022/12/28 03:41:06;;;;;;;;;;;;;;;6.53;100.00;101210.28;4914575;29;19919;-65
2022/12/28 03:43:43;;;;;;;;;;;;;;;6.49;100.00;101209.84;4914543;29;19919;-65
2022/12/28 03:46:12;;;;;;;;;;;;;;;6.50;100.00;101200.59;4913917;29;19919;-67
2022/12/28 03:48:37;;;;;;;;;;;;;;;6.62;100.00;101203.66;4914023;29;19919;-68
2022/12/28 03:51:03;;;;;;;;;;;;;;;6.54;100.00;101203.81;4914678;29;19915;-66
2022/12/28 03:53:37;;;;;;;;;;;;;;;6.74;100.00;101193.91;4913892;29;19915;-67
2022/12/28 03:56:06;;;;;;;;;;;;;;;6.63;100.00;101193.56;4913929;29;19911;-66
2022/12/28 03:58:31;;;;;;;;;;;;;;;6.73;100.00;101188.63;4911884;29;20513;-65
2022/12/28 04:00:56;;;;;;;;;;;;;;;6.76;100.00;101186.34;4913541;29;19919;-65
2022/12/28 04:03:21;;;;;;;;;;;;;;;6.80;100.00;101189.53;4913192;29;19926;-66
2022/12/28 04:05:46;;;;;;;;;;;;;;;6.67;100.00;101173.88;4913694;29;20397;-67
2022/12/28 04:08:12;;;;;;;;;;;;;;;6.84;100.00;101176.31;4913239;29;19926;-66
2022/12/28 04:10:37;;;;;;;;;;;;;;;6.95;100.00;101178.53;4913727;29;20258;-68
2022/12/28 04:13:02;;;;;;;;;;;;;;;6.82;100.00;101181.13;4912744;29;19997;-66
2022/12/28 04:15:27;;;;;;;;;;;;;;;6.89;100.00;101171.09;4913732;29;20305;-65
2022/12/28 04:17:52;;;;;;;;;;;;;;;7.00;100.00;101182.34;4912330;29;19919;-65
2022/12/28 04:20:17;;;;;;;;;;;;;;;6.95;100.00;101176.63;4913821;29;19958;-66
2022/12/28 04:22:43;;;;;;;;;;;;;;;7.12;100.00;101165.41;4912044;29;20518;-66
2022/12/28 04:25:08;;;;;;;;;;;;;;;7.05;100.00;101170.81;4912318;29;19921;-66
2022/12/28 04:27:33;;;;;;;;;;;;;;;7.06;100.00;101177.97;4912228;29;19919;-65
2022/12/28 04:29:58;;;;;;;;;;;;;;;7.01;100.00;101172.25;4912887;29;19969;-65
2022/12/28 04:32:24;;;;;;;;;;;;;;;7.13;100.00;101173.38;4912394;29;19926;-67
2022/12/28 04:34:49;;;;;;;;;;;;;;;7.19;100.00;101167.09;4914285;29;19926;-66
2022/12/28 04:37:14;;;;;;;;;;;;;;;7.11;100.00;101177.38;4913438;29;20368;-66
2022/12/28 04:39:39;;;;;;;;;;;;;;;7.43;100.00;101170.41;4912082;29;20429;-66
2022/12/28 04:42:04;;;;;;;;;;;;;;;7.29;100.00;101172.22;4913182;29;19915;-65
2022/12/28 04:44:31;;;;;;;;;;;;;;;7.24;100.00;101171.97;4913724;29;19915;-65
2022/12/28 04:46:56;;;;;;;;;;;;;;;7.22;100.00;101171.34;4911200;29;19926;-66
2022/12/28 04:49:21;;;;;;;;;;;;;;;7.39;100.00;101177.31;4913461;29;20219;-67
2022/12/28 04:51:46;;;;;;;;;;;;;;;7.28;100.00;101176.84;4912134;29;19923;-66
2022/12/28 04:54:13;;;;;;;;;;;;;;;7.35;100.00;101170.56;4913586;29;19933;-65
2022/12/28 04:56:38;;;;;;;;;;;;;;;7.33;100.00;101178.13;4911803;29;20400;-66
2022/12/28 04:59:03;;;;;;;;;;;;;;;7.46;100.00;101161.81;4911521;29;19919;-65
2022/12/28 05:01:29;;;;;;;;;;;;;;;7.39;100.00;101156.28;4912331;29;19915;-66
2022/12/28 05:03:54;;;;;;;;;;;;;;;7.43;100.00;101157.59;4912482;29;20009;-66
2022/12/28 05:06:20;;;;;;;;;;;;;;;7.51;100.00;101145.66;4912148;29;19926;-65
2022/12/28 05:08:46;;;;;;;;;;;;;;;7.37;100.00;101149.38;4912481;29;19923;-65
2022/12/28 05:11:13;;;;;;;;;;;;;;;7.43;100.00;101145.81;4911848;29;20006;-66
2022/12/28 05:13:38;;;;;;;;;;;;;;;7.44;100.00;101145.59;4909024;29;19971;-66
2022/12/28 05:16:05;;;;;;;;;;;;;;;7.34;100.00;101152.47;4911654;29;19918;-66
2022/12/28 05:18:31;;;;;;;;;;;;;;;7.42;100.00;101144.97;4911406;29;19919;-66
2022/12/28 05:21:00;;;;;;;;;;;;;;;7.34;100.00;101149.75;4912707;29;20322;-66
2022/12/28 05:23:26;;;;;;;;;;;;;;;7.47;100.00;101149.84;4912177;29;19922;-66
2022/12/28 05:25:52;;;;;;;;;;;;;;;7.34;100.00;101155.22;4912465;29;19926;-66
2022/12/28 05:28:17;;;;;;;;;;;;;;;7.35;100.00;101159.63;4911831;29;19919;-66
2022/12/28 05:30:42;;;;;;;;;;;;;;;7.35;100.00;101163.22;4907424;29;19919;-66
2022/12/28 05:33:07;;;;;;;;;;;;;;;7.32;100.00;101168.25;4911508;29;19978;-66
2022/12/28 05:35:33;;;;;;;;;;;;;;;7.46;100.00;101161.81;4912318;29;20734;-66
2022/12/28 05:37:59;;;;;;;;;;;;;;;7.32;100.00;101165.53;4911702;29;19915;-65
2022/12/28 05:40:24;;;;;;;;;;;;;;;7.37;100.00;101149.38;4912514;29;19922;-67
2022/12/28 05:42:49;;;;;;;;;;;;;;;7.31;100.00;101151.03;4910970;29;20030;-66
2022/12/28 05:45:14;;;;;;;;;;;;;;;7.39;100.00;101152.72;4911834;29;19922;-65
2022/12/28 05:47:39;;;;;;;;;;;;;;;7.26;100.00;101142.59;4910901;29;19926;-66
2022/12/28 05:50:05;;;;;;;;;;;;;;;7.43;100.00;101134.88;4912605;29;19958;-66
2022/12/28 05:52:31;;;;;;;;;;;;;;;7.37;100.00;101150.19;4911627;29;20455;-67
2022/12/28 05:54:56;;;;;;;;;;;;;;;7.26;100.00;101139.84;4911953;29;20378;-66
2022/12/28 05:57:21;;;;;;;;;;;;;;;7.29;100.00;101134.81;4911644;29;19926;-66
2022/12/28 05:59:47;;;;;;;;;;;;;;;7.32;100.00;101139.03;4914743;29;19944;-67
2022/12/28 06:02:12;;;;;;;;;;;;;;;7.39;100.00;101117.19;4909576;29;19971;-66
2022/12/28 06:04:37;;;;;;;;;;;;;;;7.40;100.00;101121.63;4911484;29;19926;-69
2022/12/28 06:07:02;;;;;;;;;;;;;;;7.49;100.00;101120.41;4909969;29;19919;-66
2022/12/28 06:09:27;;;;;;;;;;;;;;;7.54;100.00;101115.16;4909820;29;20266;-65
2022/12/28 06:11:53;;;;;;;;;;;;;;;7.52;100.00;101112.66;4909838;29;19919;-66
2022/12/28 06:14:18;;;;;;;;;;;;;;;7.52;100.00;101100.88;4911654;29;19962;-66
2022/12/28 06:16:44;;;;;;;;;;;;;;;7.43;100.00;101093.88;4910418;29;19941;-67
2022/12/28 06:19:10;;;;;;;;;;;;;;;7.54;100.00;101096.88;4911406;29;19935;-65
2022/12/28 06:21:37;;;;;;;;;;;;;;;7.57;100.00;101097.53;4911077;29;19954;-67
2022/12/28 06:24:03;;;;;;;;;;;;;;;7.52;100.00;101101.72;4911887;29;19963;-67
2022/12/28 06:26:29;;;;;;;;;;;;;;;7.51;100.00;101100.03;4911332;29;19925;-66
2022/12/28 06:28:55;;;;;;;;;;;;;;;7.54;100.00;101094.13;4911298;29;19915;-66
2022/12/28 06:31:22;;;;;;;;;;;;;;;7.58;100.00;101105.50;4909211;29;19982;-66
2022/12/28 06:33:48;;;;;;;;;;;;;;;7.56;100.00;101102.16;4910272;29;19919;-68
2022/12/28 06:36:15;;;;;;;;;;;;;;;7.78;100.00;101095.47;4910942;29;19922;-67
2022/12/28 06:38:40;;;;;;;;;;;;;;;7.55;100.00;101086.78;4909495;29;19919;-65
2022/12/28 06:41:07;;;;;;;;;;;;;;;7.62;100.00;101092.28;4911463;29;20025;-66
2022/12/28 06:43:33;;;;;;;;;;;;;;;7.57;100.00;101092.06;4911381;29;20013;-66
2022/12/28 06:45:59;;;;;;;;;;;;;;;7.69;100.00;101082.19;4911402;29;19915;-66
2022/12/28 06:48:24;;;;;;;;;;;;;;;7.58;100.00;101082.81;4909932;29;19959;-66
2022/12/28 06:50:57;;;;;;;;;;;;;;;7.71;100.00;101083.69;4909323;29;19931;-66
2022/12/28 06:53:22;;;;;;;;;;;;;;;7.69;100.00;101093.13;4910517;29;20394;-67
2022/12/28 06:55:51;;;;;;;;;;;;;;;7.55;100.00;101092.25;4909697;29;19969;-68
2022/12/28 06:58:17;;;;;;;;;;;;;;;7.66;100.00;101090.84;4910277;29;19915;-65
2022/12/28 07:00:42;;;;;;;;;;;;;;;7.82;100.00;101081.41;4914243;29;20298;-66
2022/12/28 07:03:07;;;;;;;;;;;;;;;7.86;100.00;101071.75;4909175;29;19919;-68
2022/12/28 07:05:32;;;;;;;;;;;;;;;7.83;100.00;101080.34;4910473;29;19942;-65
2022/12/28 07:07:57;;;;;;;;;;;;;;;7.84;100.00;101068.34;4908909;29;19930;-65
2022/12/28 07:10:23;;;;;;;;;;;;;;;7.91;100.00;101072.81;4911044;29;20318;-65
2022/12/28 07:12:48;;;;;;;;;;;;;;;7.79;100.00;101075.28;4904870;29;19912;-66
2022/12/28 07:15:13;;;;;;;;;;;;;;;7.90;100.00;101068.38;4911162;29;19919;-67
2022/12/28 07:17:38;;;;;;;;;;;;;;;7.91;100.00;101066.50;4909300;29;19987;-65
2022/12/28 07:20:03;;;;;;;;;;;;;;;7.92;100.00;101068.19;4911339;29;19919;-66
2022/12/28 07:22:29;;;;;;;;;;;;;;;7.87;100.00;101063.31;4909292;29;19938;-65
2022/12/28 07:24:54;;;;;;;;;;;;;;;7.93;100.00;101081.63;4910719;29;19926;-67
2022/12/28 07:27:19;;;;;;;;;;;;;;;7.95;100.00;101074.06;4910875;29;19923;-66
2022/12/28 07:29:44;;;;;;;;;;;;;;;7.92;100.00;101073.66;4909112;29;20274;-65
2022/12/28 07:32:09;;;;;;;;;;;;;;;7.93;100.00;101067.97;4909996;29;20373;-66
2022/12/28 07:34:34;;;;;;;;;;;;;;;7.94;100.00;101077.00;4908158;29;19916;-65
2022/12/28 07:37:00;;;;;;;;;;;;;;;7.91;100.00;101077.44;4908078;29;19919;-65
2022/12/28 07:39:25;;;;;;;;;;;;;;;7.87;100.00;101070.69;4911046;29;19962;-67
2022/12/28 07:41:50;;;;;;;;;;;;;;;7.97;100.00;101076.59;4910775;29;19926;-66
2022/12/28 07:44:15;;;;;;;;;;;;;;;8.00;100.00;101076.16;4911038;29;20436;-67
2022/12/28 07:46:40;;;;;;;;;;;;;;;8.18;100.00;101070.09;4909712;29;19998;-66
2022/12/28 07:49:06;;;;;;;;;;;;;;;8.06;100.00;101075.34;4909930;29;20293;-65
2022/12/28 07:51:33;;;;;;;;;;;;;;;8.08;100.00;101067.78;4909629;29;19970;-66
2022/12/28 07:53:58;;;;;;;;;;;;;;;8.06;100.00;101075.34;4909395;29;19973;-67
2022/12/28 07:56:25;;;;;;;;;;;;;;;7.97;100.00;101080.19;4910891;29;19958;-67
2022/12/28 07:58:51;;;;;;;;;;;;;;;8.15;100.00;101078.72;4912181;29;20001;-66
2022/12/28 08:01:18;;;;;;;;;;;;;;;8.21;100.00;101084.22;4913167;29;19926;-66
2022/12/28 08:03:43;;;;;;;;;;;;;;;8.03;100.00;101087.53;4912466;29;19915;-66
2022/12/28 08:06:10;;;;;;;;;;;;;;;8.04;100.00;101083.75;4914381;29;19915;-66
2022/12/28 08:08:36;;;;;;;;;;;;;;;8.13;100.00;101073.47;4913974;29;19919;-66
2022/12/28 08:11:03;;;;;;;;;;;;;;;8.10;100.00;101076.59;4913583;29;19922;-66
2022/12/28 08:13:29;;;;;;;;;;;;;;;8.23;100.00;101082.09;4912490;29;19914;-66
2022/12/28 08:15:54;;;;;;;;;;;;;;;8.24;100.00;101088.41;4911745;29;19915;-66
2022/12/28 08:18:19;;;;;;;;;;;;;;;8.14;100.00;101088.81;4909194;29;19922;-65
2022/12/28 08:20:44;;;;;;;;;;;;;;;8.15;100.00;101076.81;4913234;29;19926;-66
2022/12/28 08:23:10;;;;;;;;;;;;;;;8.15;100.00;101074.06;4912050;29;20018;-65
2022/12/28 08:25:35;;;;;;;;;;;;;;;8.06;100.00;101064.41;4913946;29;20301;-66
2022/12/28 08:28:00;;;;;;;;;;;;;;;8.13;100.00;101073.47;4910992;29;19915;-65
2022/12/28 08:30:25;;;;;;;;;;;;;;;8.07;100.00;101066.94;4911779;29;20350;-66
2022/12/28 08:32:50;;;;;;;;;;;;;;;7.99;100.00;101067.13;4910490;29;19940;-66
2022/12/28 08:35:15;;;;;;;;;;;;;;;7.98;100.00;101061.88;4911808;29;19915;-66
2022/12/28 08:37:41;;;;;;;;;;;;;;;8.07;100.00;101066.94;4910596;29;20326;-65
2022/12/28 08:40:06;;;;;;;;;;;;;;;8.16;100.00;101064.84;4911962;29;20022;-65
2022/12/28 08:42:31;;;;;;;;;;;;;;;8.08;100.00;101073.25;4910845;29;19915;-67
2022/12/28 08:44:56;;;;;;;;;;;;;;;8.14;100.00;101063.34;4909895;29;19926;-66
2022/12/28 08:47:22;;;;;;;;;;;;;;;8.21;100.00;101065.06;4910323;29;20017;-66
2022/12/28 08:49:47;;;;;;;;;;;;;;;8.15;100.00;101068.59;4910815;29;19915;-65
2022/12/28 08:52:12;;;;;;;;;;;;;;;8.20;100.00;101060.63;4911077;29;19955;-65
2022/12/28 08:54:37;;;;;;;;;;;;;;;8.20;100.00;101055.13;4911139;29;19915;-66
2022/12/28 08:57:03;;;;;;;;;;;;;;;8.44;100.00;101053.69;4911200;29;20402;-67
2022/12/28 08:59:28;;;;;;;;;;;;;;;8.31;100.00;101065.47;4911294;29;19915;-66
2022/12/28 09:01:53;;;;;;;;;;;;;;;8.26;100.00;101057.06;4909996;29;20304;-65
2022/12/28 09:04:19;;;;;;;;;;;;;;;8.40;100.00;101060.66;4909957;29;19930;-65
2022/12/28 09:06:45;;;;;;;;;;;;;;;8.30;100.00;101055.56;4910313;29;20259;-65
2022/12/28 09:09:12;;;;;;;;;;;;;;;8.30;100.00;101058.28;4910457;29;19974;-65
2022/12/28 09:11:37;;;;;;;;;;;;;;;8.27;100.00;101057.91;4911617;29;20326;-68
2022/12/28 09:14:03;;;;;;;;;;;;;;;8.21;100.00;101050.50;4912090;29;19915;-65
2022/12/28 09:16:28;;;;;;;;;;;;;;;8.31;100.00;101054.53;4910852;29;20022;-66
2022/12/28 09:18:55;;;;;;;;;;;;;;;8.27;100.00;101058.75;4911464;29;19922;-65
2022/12/28 09:21:21;;;;;;;;;;;;;;;8.26;100.00;101061.66;4910515;29;19919;-66
2022/12/28 09:23:46;;;;;;;;;;;;;;;8.35;100.00;101062.31;4910952;29;20311;-65
2022/12/28 09:26:12;;;;;;;;;;;;;;;8.24;100.00;101063.78;4911150;29;20292;-66
2022/12/28 09:28:38;;;;;;;;;;;;;;;8.25;100.00;101066.28;4908605;29;20340;-66
2022/12/28 09:31:04;;;;;;;;;;;;;;;8.15;100.00;101074.06;4909994;29;19954;-66
2022/12/28 09:36:15;;;;;;;;;;;;;;;8.17;100.00;101063.78;4901404;29;19953;-65
2022/12/28 09:38:40;;;;;;;;;;;;;;;8.10;100.00;101071.13;4908780;29;19995;-65
2022/12/28 09:41:21;;;;;;;;;;;;;;;8.25;100.00;101058.09;4904187;29;19927;-65
2022/12/28 09:43:47;;;;;;;;;;;;;;;8.14;100.00;101064.19;4910224;29;19915;-64
2022/12/28 09:46:15;;;;;;;;;;;;;;;8.12;100.00;101066.31;4906535;29;19965;-63
2022/12/28 09:48:40;;;;;;;;;;;;;;;8.21;100.00;101051.38;4900275;29;19923;-64
2022/12/28 09:51:05;;;;;;;;;;;;;;;8.15;100.00;101054.94;4910861;29;19978;-63
2022/12/28 09:53:32;;;;;;;;;;;;;;;8.27;100.00;101055.16;4909751;29;19962;-64
2022/12/28 09:55:59;;;;;;;;;;;;;;;8.42;100.00;101064.03;4907993;29;20783;-63
2022/12/28 09:58:26;;;;;;;;;;;;;;;8.23;100.00;101060.19;4910210;29;19962;-64
2022/12/28 10:00:53;;;;;;;;;;;;;;;8.35;100.00;101045.88;4901118;29;20394;-63
2022/12/28 10:03:30;;;;;;;;;;;;;;;8.33;100.00;101048.84;4904640;29;20293;-63
2022/12/28 10:05:56;;;;;;;;;;;;;;;8.37;100.00;101050.13;4906759;29;19919;-64
2022/12/28 10:08:23;;;;;;;;;;;;;;;8.55;100.00;101052.22;4906336;29;20274;-64
2022/12/28 10:10:50;;;;;;;;;;;;;;;8.48;100.00;101054.97;4909354;29;19958;-63
2022/12/28 10:13:22;;;;;;;;;;;;;;;8.41;100.00;101050.53;4908634;29;19926;-63
2022/12/28 10:15:48;;;;;;;;;;;;;;;8.68;100.00;101054.94;4908867;29;19990;-61
2022/12/28 10:18:14;;;;;;;;;;;;;;;8.53;100.00;101040.66;4909734;29;20017;-62
2022/12/28 10:20:39;;;;;;;;;;;;;;;8.56;100.00;101049.25;4909679;29;19978;-63
2022/12/28 10:23:05;;;;;;;;;;;;;;;8.51;100.00;101045.47;4905548;29;19922;-63
2022/12/28 10:25:31;;;;;;;;;;;;;;;8.47;100.00;101044.25;4908621;29;19929;-64
2022/12/28 10:27:57;;;;;;;;;;;;;;;8.38;100.00;101040.03;4909422;29;19915;-62
2022/12/28 10:30:26;;;;;;;;;;;;;;;8.39;100.00;101031.59;4906013;29;19919;-64
2022/12/28 10:32:53;;;;;;;;;;;;;;;8.52;100.00;101044.44;4901334;29;20306;-62
2022/12/28 10:35:29;;;;;;;;;;;;;;;8.49;100.00;101036.66;4908148;29;19925;-63
2022/12/28 10:37:59;;;;;;;;;;;;;;;8.48;100.00;101033.06;4892241;29;20026;-64
2022/12/28 10:40:26;;;;;;;;;;;;;;;8.48;100.00;101027.59;4893675;29;19955;-63
2022/12/28 10:42:53;;;;;;;;;;;;;;;8.36;100.00;101032.00;4908161;29;20015;-63
2022/12/28 10:45:21;;;;;;;;;;;;;;;8.46;100.00;101037.06;4908408;29;19927;-63
2022/12/28 10:47:54;;;;;;;;;;;;;;;8.41;100.00;101029.47;4908889;29;19915;-64
2022/12/28 10:50:38;;;;;;;;;;;;;;;8.40;100.00;101033.28;4906431;29;20363;-63
2022/12/28 10:53:04;;;;;;;;;;;;;;;8.46;100.00;101037.91;4902499;29;19927;-63
2022/12/28 10:55:31;;;;;;;;;;;;;;;8.55;100.00;101027.56;4907438;29;19927;-63
2022/12/28 10:58:13;;;;;;;;;;;;;;;8.57;100.00;101023.59;4904178;29;20382;-64
2022/12/28 11:00:38;;;;;;;;;;;;;;;8.52;100.00;101014.34;4907201;29;19942;-63
2022/12/28 11:03:16;;;;;;;;;;;;;;;8.54;100.00;101006.75;4909480;29;19915;-63
2022/12/28 11:05:41;;;;;;;;;;;;;;;8.52;100.00;101015.16;4906151;29;20033;-63
2022/12/28 11:08:06;;;;;;;;;;;;;;;8.51;100.00;101008.00;4905851;29;20030;-62
2022/12/28 11:10:31;;;;;;;;;;;;;;;8.57;100.00;101004.44;4910328;29;19915;-62
2022/12/28 11:12:58;;;;;;;;;;;;;;;8.51;100.00;101004.41;4909087;29;20355;-62
2022/12/28 11:15:26;;;;;;;;;;;;;;;8.59;100.00;101001.47;4908524;29;19915;-63
2022/12/28 11:18:11;;;;;;;;;;;;;;;8.65;100.00;101000.59;4909313;29;19923;-63
2022/12/28 11:20:38;;;;;;;;;;;;;;;8.56;100.00;100996.41;4899130;29;20390;-63
2022/12/28 11:23:05;;;;;;;;;;;;;;;8.59;100.00;100993.25;4909510;29;19954;-63
2022/12/28 11:25:33;;;;;;;;;;;;;;;8.56;100.00;100993.66;4909260;29;20305;-64
2022/12/28 11:27:59;;;;;;;;;;;;;;;8.65;100.00;100981.44;4910040;29;20400;-65
2022/12/28 11:30:24;;;;;;;;;;;;;;;8.72;100.00;100985.00;4909794;29;19919;-63
2022/12/28 11:32:54;;;;;;;;;;;;;;;8.66;100.00;100998.69;4910477;29;20078;-63
2022/12/28 11:35:25;;;;;;;;;;;;;;;8.70;100.00;100970.69;4913854;29;19925;-63
2022/12/28 11:37:58;;;;;;;;;;;;;;;8.65;100.00;100973.22;4912288;29;19967;-63
2022/12/28 11:40:41;;;;;;;;;;;;;;;8.67;100.00;100973.88;4915079;29;19922;-63
2022/12/28 11:43:27;;;;;;;;;;;;;;;8.78;100.00;100967.72;4914605;29;19922;-64
2022/12/28 11:45:53;;;;;;;;;;;;;;;8.88;100.00;100960.94;4913562;29;19963;-63
2022/12/28 11:48:37;;;;;;;;;;;;;;;8.73;100.00;100961.22;4913385;29;19915;-64
2022/12/28 11:51:03;;;;;;;;;;;;;;;8.97;100.00;100943.19;4913725;29;19915;-63
2022/12/28 11:53:32;;;;;;;;;;;;;;;8.82;100.00;100955.28;4909805;29;19954;-63
2022/12/28 11:55:57;;;;;;;;;;;;;;;8.79;100.00;100943.91;4895696;29;20185;-63
2022/12/28 11:58:29;;;;;;;;;;;;;;;8.77;100.00;100949.59;4894115;29;20360;-63
2022/12/28 12:00:55;;;;;;;;;;;;;;;8.67;100.00;100938.28;4893826;29;19915;-64
2022/12/28 12:03:40;;;;;;;;;;;;;;;8.89;100.00;100937.97;4912928;29;20259;-64
2022/12/28 12:06:05;;;;;;;;;;;;;;;8.70;100.00;100924.13;4908504;29;19925;-62
2022/12/28 12:08:30;;;;;;;;;;;;;;;8.69;100.00;100910.66;4912149;29;20005;-62
2022/12/28 12:11:15;;;;;;;;;;;;;;;8.82;100.00;100925.16;4908069;29;19920;-63
2022/12/28 12:13:46;;;;;;;;;;;;;;;8.72;100.00;100927.50;4911815;29;19926;-63
2022/12/28 12:16:20;;;;;;;;;;;;;;;8.86;100.00;100921.97;4911714;29;19915;-62
2022/12/28 12:18:50;;;;;;;;;;;;;;;8.68;100.00;100917.19;4912067;29;19919;-62
2022/12/28 12:21:23;;;;;;;;;;;;;;;8.76;100.00;100909.56;4911792;29;19927;-62
2022/12/28 12:23:51;;;;;;;;;;;;;;;8.79;100.00;100911.03;4910631;29;19919;-63
2022/12/28 12:26:26;;;;;;;;;;;;;;;8.85;100.00;100912.91;4910559;29;19926;-63
2022/12/28 12:28:52;;;;;;;;;;;;;;;8.72;100.00;100891.91;4911779;29;19998;-63
2022/12/28 12:31:24;;;;;;;;;;;;;;;8.76;100.00;100906.81;4909007;29;19925;-63
2022/12/28 12:33:51;;;;;;;;;;;;;;;8.74;100.00;100894.44;4911865;29;20006;-62
2022/12/28 12:36:16;;;;;;;;;;;;;;;8.79;100.00;100889.13;4912020;29;19971;-62
2022/12/28 12:38:41;;;;;;;;;;;;;;;8.80;100.00;100877.94;4911483;29;20374;-62
2022/12/28 12:41:10;;;;;;;;;;;;;;;8.99;100.00;100865.22;4909370;29;20669;-65
2022/12/28 12:43:43;;;;;;;;;;;;;;;8.78;100.00;100871.03;4906802;29;19974;-68
2022/12/28 12:46:17;;;;;;;;;;;;;;;8.82;100.00;100869.53;4891447;29;19926;-67
2022/12/28 12:49:01;;;;;;;;;;;;;;;8.82;100.00;100859.41;4909034;29;20595;-67
2022/12/28 12:51:26;;;;;;;;;;;;;;;8.88;100.00;100859.59;4911830;29;19995;-67
2022/12/28 12:54:00;;;;;;;;;;;;;;;8.89;100.00;100851.16;4910054;29;20350;-67
2022/12/28 12:56:25;;;;;;;;;;;;;;;8.86;100.00;100848.84;4903728;29;19920;-67
2022/12/28 12:59:01;;;;;;;;;;;;;;;8.94;100.00;100834.06;4910180;29;19921;-67
2022/12/28 13:01:32;;;;;;;;;;;;;;;8.85;100.00;100841.69;4910962;29;20278;-67